createdAt,value
2022-12-18T00:01:37.690Z,22.13
2022-12-18T00:04:09.018Z,21.23
2022-12-18T00:06:39.775Z,21.83
2022-12-18T00:09:07.930Z,23.70
2022-12-18T00:11:34.663Z,23.93
2022-12-18T00:14:02.287Z,24.83
2022-12-18T00:16:31.870Z,23.07
2022-12-18T00:18:59.783Z,23.33
2022-12-18T00:21:28.848Z,22.83
2022-12-18T00:23:56.733Z,22.43
2022-12-18T00:26:29.964Z,22.83
2022-12-18T00:29:20.411Z,21.00
2022-12-18T00:31:47.297Z,20.23
2022-12-18T00:34:14.580Z,23.37
2022-12-18T00:36:42.486Z,21.47
2022-12-18T00:39:11.333Z,20.37
2022-12-18T00:41:56.481Z,22.87
2022-12-18T00:44:23.317Z,22.60
2022-12-18T00:46:50.326Z,21.63
2022-12-18T00:49:36.227Z,21.80
2022-12-18T00:52:02.974Z,18.50
2022-12-18T00:54:29.792Z,20.90
2022-12-18T00:56:57.803Z,21.87
2022-12-18T00:59:24.559Z,20.63
2022-12-18T01:01:51.519Z,21.73
2022-12-18T01:04:18.390Z,21.87
2022-12-18T01:06:45.103Z,19.40
2022-12-18T01:09:11.849Z,20.10
2022-12-18T01:11:40.594Z,21.60
2022-12-18T01:14:09.812Z,18.47
2022-12-18T01:16:36.638Z,20.27
2022-12-18T01:19:03.459Z,20.57
2022-12-18T01:21:30.191Z,20.40
2022-12-18T01:23:58.406Z,22.30
2022-12-18T01:26:30.437Z,21.50
2022-12-18T01:28:58.919Z,21.37
2022-12-18T01:31:33.080Z,22.37
2022-12-18T01:34:03.377Z,22.03
2022-12-18T01:36:39.831Z,22.70
2022-12-18T01:39:12.417Z,21.83
2022-12-18T01:41:58.283Z,21.20
2022-12-18T01:45:05.710Z,21.73
2022-12-18T01:47:46.450Z,23.57
2022-12-18T01:50:46.108Z,24.10
2022-12-18T01:53:19.207Z,22.60
2022-12-18T01:55:52.577Z,23.27
2022-12-18T01:58:24.122Z,23.67
2022-12-18T02:00:55.991Z,23.67
2022-12-18T02:03:22.959Z,22.77
2022-12-18T02:06:11.474Z,24.03
2022-12-18T02:09:08.742Z,23.53
2022-12-18T02:12:17.632Z,20.67
2022-12-18T02:15:05.559Z,19.07
2022-12-18T02:17:40.787Z,20.43
2022-12-18T02:20:29.198Z,23.07
2022-12-18T02:23:18.176Z,21.53
2022-12-18T02:26:15.280Z,21.47
2022-12-18T02:28:58.157Z,20.77
2022-12-18T02:31:32.424Z,21.83
2022-12-18T02:34:05.618Z,20.53
2022-12-18T02:36:35.314Z,20.73
2022-12-18T02:39:08.405Z,21.20
2022-12-18T02:41:38.659Z,20.53
2022-12-18T02:44:15.882Z,21.47
2022-12-18T02:46:53.143Z,20.57
2022-12-18T02:49:42.666Z,21.27
2022-12-18T02:52:43.312Z,21.13
2022-12-18T02:55:34.949Z,21.33
2022-12-18T02:58:19.433Z,20.83
2022-12-18T03:01:16.167Z,20.40
2022-12-18T03:03:56.285Z,20.87
2022-12-18T03:06:51.060Z,19.73
2022-12-18T03:09:36.538Z,19.93
2022-12-18T03:12:24.217Z,20.57
2022-12-18T03:15:17.798Z,20.77
2022-12-18T03:18:03.882Z,20.60
2022-12-18T03:20:35.219Z,20.23
2022-12-18T03:23:26.123Z,20.80
2022-12-18T03:26:04.357Z,20.10
2022-12-18T03:28:40.494Z,21.10
2022-12-18T03:31:12.213Z,22.27
2022-12-18T03:33:47.948Z,22.73
2022-12-18T03:36:15.866Z,20.80
2022-12-18T03:38:42.838Z,21.17
2022-12-18T03:41:33.350Z,21.47
2022-12-18T03:44:21.436Z,21.27
2022-12-18T03:47:30.066Z,21.30
2022-12-18T03:50:02.606Z,21.07
2022-12-18T03:52:40.663Z,22.37
2022-12-18T03:55:10.093Z,21.00
2022-12-18T03:57:38.766Z,21.30
2022-12-18T04:00:12.882Z,22.57
2022-12-18T04:02:46.828Z,20.27
2022-12-18T04:05:15.947Z,20.33
2022-12-18T04:07:46.604Z,20.40
2022-12-18T04:10:16.079Z,19.60
2022-12-18T04:12:43.017Z,19.13
2022-12-18T04:15:21.149Z,19.90
2022-12-18T04:17:51.049Z,19.33
2022-12-18T04:20:18.788Z,20.03
2022-12-18T04:22:45.555Z,19.87
2022-12-18T04:25:13.213Z,19.57
2022-12-18T04:27:40.092Z,18.57
2022-12-18T04:30:07.766Z,18.20
2022-12-18T04:32:35.666Z,18.47
2022-12-18T04:35:03.034Z,16.67
2022-12-18T04:37:29.792Z,16.97
2022-12-18T04:39:56.646Z,17.20
2022-12-18T04:42:23.398Z,17.30
2022-12-18T04:44:50.123Z,17.23
2022-12-18T04:47:17.965Z,16.00
2022-12-18T04:49:44.653Z,15.87
2022-12-18T04:52:11.364Z,16.80
2022-12-18T04:54:38.101Z,16.90
2022-12-18T04:57:04.880Z,15.97
2022-12-18T04:59:31.662Z,15.97
2022-12-18T05:01:58.502Z,15.53
2022-12-18T05:04:25.358Z,16.47
2022-12-18T05:06:52.169Z,15.53
2022-12-18T05:09:18.899Z,15.57
2022-12-18T05:11:47.575Z,15.67
2022-12-18T05:14:14.398Z,14.90
2022-12-18T05:16:41.327Z,14.93
2022-12-18T05:19:08.116Z,15.40
2022-12-18T05:21:34.940Z,15.13
2022-12-18T05:24:01.662Z,14.73
2022-12-18T05:26:28.400Z,15.77
2022-12-18T05:28:59.290Z,14.47
2022-12-18T05:31:28.593Z,14.33
2022-12-18T05:33:55.341Z,14.57
2022-12-18T05:36:22.072Z,13.63
2022-12-18T05:38:49.876Z,14.03
2022-12-18T05:41:16.666Z,13.33
2022-12-18T05:43:44.344Z,13.73
2022-12-18T05:46:18.899Z,13.47
2022-12-18T05:48:46.284Z,12.90
2022-12-18T05:51:17.289Z,13.20
2022-12-18T05:53:44.759Z,12.90
2022-12-18T05:56:19.411Z,13.07
2022-12-18T05:58:47.394Z,12.47
2022-12-18T06:01:22.639Z,11.83
2022-12-18T06:03:50.747Z,12.80
2022-12-18T06:06:24.425Z,12.10
2022-12-18T06:08:52.417Z,12.43
2022-12-18T06:11:23.914Z,12.30
2022-12-18T06:13:58.193Z,11.63
2022-12-18T06:16:26.857Z,12.27
2022-12-18T06:18:53.812Z,11.33
2022-12-18T06:21:20.770Z,11.67
2022-12-18T06:23:49.782Z,11.43
2022-12-18T06:26:16.783Z,11.53
2022-12-18T06:28:46.089Z,11.77
2022-12-18T06:31:13.164Z,12.00
2022-12-18T06:33:40.742Z,12.20
2022-12-18T06:36:14.302Z,11.03
2022-12-18T06:38:44.831Z,10.90
2022-12-18T06:41:18.701Z,11.43
2022-12-18T06:43:45.791Z,11.03
2022-12-18T06:46:13.768Z,10.47
2022-12-18T06:48:41.121Z,10.53
2022-12-18T06:51:08.295Z,11.23
2022-12-18T06:53:35.429Z,11.50
2022-12-18T06:56:11.093Z,12.00
2022-12-18T06:58:43.326Z,11.53
2022-12-18T07:01:12.977Z,10.53
2022-12-18T07:03:41.998Z,11.57
2022-12-18T07:06:17.396Z,11.13
2022-12-18T07:08:44.981Z,11.37
2022-12-18T07:11:11.969Z,10.57
2022-12-18T07:13:39.654Z,10.43
2022-12-18T07:16:18.386Z,10.30
2022-12-18T07:18:48.145Z,10.07
2022-12-18T07:21:19.664Z,10.07
2022-12-18T07:23:48.712Z,11.07
2022-12-18T07:26:19.740Z,10.97
2022-12-18T07:28:47.562Z,10.77
2022-12-18T07:31:22.163Z,11.13
2022-12-18T07:33:51.062Z,10.87
2022-12-18T07:36:18.221Z,10.50
2022-12-18T07:38:49.167Z,10.60
2022-12-18T07:41:16.731Z,10.00
2022-12-18T07:43:46.083Z,10.77
2022-12-18T07:46:15.090Z,10.63
2022-12-18T07:48:44.321Z,11.03
2022-12-18T07:51:13.993Z,11.37
2022-12-18T07:53:42.055Z,11.40
2022-12-18T07:56:30.019Z,10.37
2022-12-18T07:58:59.314Z,11.20
2022-12-18T08:01:26.634Z,11.07
2022-12-18T08:03:53.657Z,11.60
2022-12-18T08:06:23.852Z,12.77
2022-12-18T08:08:56.744Z,11.30
2022-12-18T08:11:27.142Z,10.20
2022-12-18T08:13:54.345Z,11.43
2022-12-18T08:16:24.399Z,11.87
2022-12-18T08:18:54.747Z,10.63
2022-12-18T08:21:29.262Z,10.30
2022-12-18T08:24:00.929Z,10.60
2022-12-18T08:26:31.902Z,10.20
2022-12-18T08:29:01.241Z,9.93
2022-12-18T08:31:30.450Z,10.33
2022-12-18T08:33:57.983Z,11.07
2022-12-18T08:36:26.207Z,10.40
2022-12-18T08:38:54.483Z,10.60
2022-12-18T08:41:21.786Z,9.87
2022-12-18T08:44:08.630Z,8.87
2022-12-18T08:46:41.534Z,11.13
2022-12-18T08:49:12.135Z,9.77
2022-12-18T08:51:40.104Z,10.53
2022-12-18T08:54:08.162Z,10.40
2022-12-18T08:56:36.235Z,9.53
2022-12-18T08:59:03.817Z,9.40
2022-12-18T09:01:31.040Z,10.93
2022-12-18T09:03:58.793Z,10.00
2022-12-18T09:06:28.270Z,10.73
2022-12-18T09:08:54.998Z,10.43
2022-12-18T09:11:28.390Z,9.80
2022-12-18T09:13:58.763Z,10.63
2022-12-18T09:16:32.295Z,9.97
2022-12-18T09:19:01.101Z,9.73
2022-12-18T09:21:36.942Z,10.47
2022-12-18T09:24:08.892Z,10.00
2022-12-18T09:26:36.457Z,10.40
2022-12-18T09:29:05.178Z,10.27
2022-12-18T09:31:31.985Z,10.60
2022-12-18T09:33:58.767Z,10.07
2022-12-18T09:36:25.556Z,10.17
2022-12-18T09:38:52.323Z,9.60
2022-12-18T09:41:47.466Z,9.70
2022-12-18T09:44:47.358Z,10.37
2022-12-18T09:47:38.668Z,10.43
2022-12-18T09:50:24.724Z,10.07
2022-12-18T09:52:59.213Z,9.70
2022-12-18T09:55:37.499Z,9.83
2022-12-18T09:58:24.092Z,10.40
2022-12-18T10:00:56.782Z,10.13
2022-12-18T10:03:23.936Z,10.50
2022-12-18T10:06:23.756Z,10.67
2022-12-18T10:09:29.806Z,10.53
2022-12-18T10:12:33.690Z,11.50
2022-12-18T10:15:18.728Z,10.30
2022-12-18T10:18:22.239Z,10.63
2022-12-18T10:20:57.030Z,9.90
2022-12-18T10:23:52.298Z,10.73
2022-12-18T10:26:19.087Z,9.60
2022-12-18T10:28:47.083Z,10.70
2022-12-18T10:31:22.079Z,10.60
2022-12-18T10:33:54.634Z,10.77
2022-12-18T10:36:24.731Z,10.50
2022-12-18T10:38:52.380Z,10.10
2022-12-18T10:41:19.959Z,9.70
2022-12-18T10:43:49.271Z,10.53
2022-12-18T10:46:21.320Z,9.23
2022-12-18T10:48:48.073Z,10.40
2022-12-18T10:51:23.985Z,10.97
2022-12-18T10:54:13.412Z,9.67
2022-12-18T10:56:40.791Z,10.30
2022-12-18T10:59:18.715Z,10.33
2022-12-18T11:01:55.878Z,10.73
2022-12-18T11:04:30.700Z,10.37
2022-12-18T11:07:03.903Z,9.30
2022-12-18T11:09:39.633Z,9.50
2022-12-18T11:12:29.552Z,9.60
2022-12-18T11:15:00.890Z,10.30
2022-12-18T11:17:35.871Z,10.37
2022-12-18T11:20:32.615Z,9.03
2022-12-18T11:23:07.341Z,9.50
2022-12-18T11:25:35.947Z,10.33
2022-12-18T11:28:34.927Z,10.43
2022-12-18T11:31:26.140Z,9.17
2022-12-18T11:34:33.985Z,8.80
2022-12-18T11:37:06.665Z,9.63
2022-12-18T11:39:52.547Z,9.47
2022-12-18T11:42:36.682Z,9.50
2022-12-18T11:45:25.664Z,8.90
2022-12-18T11:48:22.732Z,9.23
2022-12-18T11:50:57.186Z,9.40
2022-12-18T11:53:27.639Z,9.47
2022-12-18T11:56:27.295Z,9.10
2022-12-18T11:59:47.879Z,9.87
2022-12-18T12:02:29.692Z,9.27
2022-12-18T12:05:14.542Z,9.93
2022-12-18T12:08:00.210Z,10.53
2022-12-18T12:11:00.690Z,8.47
2022-12-18T12:13:44.890Z,8.73
2022-12-18T12:16:44.029Z,9.37
2022-12-18T12:19:28.651Z,8.87
2022-12-18T12:22:17.492Z,10.30
2022-12-18T12:25:12.307Z,10.30
2022-12-18T12:28:14.383Z,9.57
2022-12-18T12:31:28.430Z,9.20
2022-12-18T12:34:13.906Z,9.30
2022-12-18T12:36:59.597Z,8.87
2022-12-18T12:39:43.383Z,9.53
2022-12-18T12:42:58.956Z,10.00
2022-12-18T12:45:42.009Z,8.47
2022-12-18T12:48:24.729Z,9.20
2022-12-18T12:50:52.504Z,9.40
2022-12-18T12:53:35.283Z,9.43
2022-12-18T12:56:05.305Z,9.20
2022-12-18T12:59:02.693Z,9.37
2022-12-18T13:01:56.496Z,9.97
2022-12-18T13:04:54.311Z,8.87
2022-12-18T13:07:46.983Z,10.50
2022-12-18T13:10:23.780Z,9.00
2022-12-18T13:13:23.570Z,9.23
2022-12-18T13:16:09.143Z,8.87
2022-12-18T13:18:36.797Z,8.60
2022-12-18T13:21:24.847Z,9.63
2022-12-18T13:23:52.251Z,10.20
2022-12-18T13:26:23.255Z,11.10
2022-12-18T13:28:58.520Z,9.27
2022-12-18T13:31:40.969Z,9.23
2022-12-18T13:34:26.790Z,9.57
2022-12-18T13:37:17.646Z,10.03
2022-12-18T13:39:44.577Z,10.20
2022-12-18T13:42:31.474Z,10.07
2022-12-18T13:44:59.508Z,9.97
2022-12-18T13:47:41.112Z,9.20
2022-12-18T13:50:35.421Z,9.57
2022-12-18T13:53:06.039Z,10.30
2022-12-18T13:55:33.509Z,10.60
2022-12-18T13:58:13.048Z,9.70
2022-12-18T14:00:44.186Z,10.30
2022-12-18T14:03:41.615Z,9.43
2022-12-18T14:06:13.993Z,8.93
2022-12-18T14:08:45.048Z,9.90
2022-12-18T14:11:23.971Z,9.47
2022-12-18T14:13:54.700Z,10.03
2022-12-18T14:16:22.832Z,9.70
2022-12-18T14:18:58.144Z,10.07
2022-12-18T14:21:36.002Z,9.80
2022-12-18T14:24:21.123Z,10.50
2022-12-18T14:26:50.855Z,10.90
2022-12-18T14:29:32.103Z,10.47
2022-12-18T14:32:18.657Z,9.57
2022-12-18T14:34:51.834Z,9.90
2022-12-18T14:37:25.093Z,11.30
2022-12-18T14:40:07.185Z,10.20
2022-12-18T14:42:38.026Z,11.00
2022-12-18T14:45:45.546Z,10.90
2022-12-18T14:48:12.754Z,10.17
2022-12-18T14:50:41.083Z,10.53
2022-12-18T14:53:34.322Z,10.87
2022-12-18T14:56:02.512Z,10.20
2022-12-18T14:58:29.810Z,9.60
2022-12-18T15:00:56.660Z,11.53
2022-12-18T15:03:23.773Z,12.00
2022-12-18T15:05:51.828Z,10.40
2022-12-18T15:08:38.272Z,11.30
2022-12-18T15:11:29.138Z,11.00
2022-12-18T15:13:55.968Z,10.87
2022-12-18T15:16:23.085Z,11.27
2022-12-18T15:18:49.955Z,11.57
2022-12-18T15:21:21.873Z,11.90
2022-12-18T15:23:52.297Z,10.37
2022-12-18T15:26:22.190Z,11.87
2022-12-18T15:28:59.334Z,11.10
2022-12-18T15:31:38.014Z,11.80
2022-12-18T15:34:22.309Z,11.33
2022-12-18T15:36:51.121Z,10.53
2022-12-18T15:39:17.927Z,11.90
2022-12-18T15:42:05.815Z,11.73
2022-12-18T15:44:32.926Z,11.87
2022-12-18T15:47:00.011Z,12.60
2022-12-18T15:49:27.041Z,11.33
2022-12-18T15:51:58.938Z,12.03
2022-12-18T15:54:44.229Z,11.93
2022-12-18T15:57:24.762Z,11.73
2022-12-18T15:59:57.714Z,11.57
2022-12-18T16:02:25.532Z,11.80
2022-12-18T16:04:54.451Z,10.30
2022-12-18T16:07:25.582Z,11.17
2022-12-18T16:09:52.982Z,12.63
2022-12-18T16:12:25.058Z,12.47
2022-12-18T16:14:51.929Z,11.40
2022-12-18T16:17:19.220Z,13.07
2022-12-18T16:19:46.469Z,11.30
2022-12-18T16:22:24.844Z,12.23
2022-12-18T16:24:54.351Z,11.57
2022-12-18T16:27:24.482Z,12.70
2022-12-18T16:29:51.988Z,11.97
2022-12-18T16:32:22.470Z,12.00
2022-12-18T16:34:50.427Z,12.73
2022-12-18T16:37:17.619Z,13.47
2022-12-18T16:39:45.397Z,13.57
2022-12-18T16:42:21.346Z,12.10
2022-12-18T16:44:50.081Z,13.27
2022-12-18T16:47:18.105Z,12.40
2022-12-18T16:49:46.154Z,12.60
2022-12-18T16:52:13.723Z,13.43
2022-12-18T16:54:40.504Z,13.33
2022-12-18T16:57:07.311Z,13.50
2022-12-18T16:59:37.251Z,13.70
2022-12-18T17:02:19.214Z,13.83
2022-12-18T17:04:53.159Z,12.83
2022-12-18T17:07:20.000Z,13.00
2022-12-18T17:09:46.877Z,13.23
2022-12-18T17:12:13.594Z,14.97
2022-12-18T17:14:40.411Z,15.50
2022-12-18T17:17:23.722Z,13.13
2022-12-18T17:19:52.446Z,14.50
2022-12-18T17:22:21.727Z,12.50
2022-12-18T17:24:48.505Z,13.17
2022-12-18T17:27:15.634Z,12.93
2022-12-18T17:29:47.284Z,13.07
2022-12-18T17:32:16.778Z,13.23
2022-12-18T17:34:43.748Z,13.70
2022-12-18T17:37:10.510Z,13.57
2022-12-18T17:39:37.587Z,14.03
2022-12-18T17:42:05.302Z,14.37
2022-12-18T17:44:34.239Z,14.13
2022-12-18T17:47:01.546Z,15.40
2022-12-18T17:49:28.524Z,14.40
2022-12-18T17:51:55.248Z,14.13
2022-12-18T17:54:22.031Z,13.30
2022-12-18T17:56:48.738Z,13.10
2022-12-18T17:59:15.490Z,13.67
2022-12-18T18:01:45.052Z,13.30
2022-12-18T18:04:13.156Z,14.37
2022-12-18T18:06:40.435Z,13.27
2022-12-18T18:09:15.629Z,13.83
2022-12-18T18:12:06.489Z,13.43
2022-12-18T18:14:33.570Z,13.80
2022-12-18T18:17:04.835Z,14.30
2022-12-18T18:19:33.439Z,14.67
2022-12-18T18:22:01.726Z,14.33
2022-12-18T18:24:31.249Z,14.50
2022-12-18T18:27:01.197Z,13.63
2022-12-18T18:29:32.165Z,13.63
2022-12-18T18:31:59.795Z,13.67
2022-12-18T18:34:30.904Z,14.10
2022-12-18T18:37:02.063Z,14.23
2022-12-18T18:39:29.679Z,14.77
2022-12-18T18:41:56.677Z,13.23
2022-12-18T18:44:26.161Z,14.90
2022-12-18T18:46:58.011Z,13.27
2022-12-18T18:49:27.655Z,13.40
2022-12-18T18:51:57.221Z,13.83
2022-12-18T18:54:25.791Z,13.20
2022-12-18T18:59:39.641Z,14.83
2022-12-18T19:02:09.240Z,13.47
2022-12-18T19:04:36.624Z,13.13
2022-12-18T19:07:09.184Z,13.87
2022-12-18T19:09:36.261Z,14.47
2022-12-18T19:12:22.758Z,13.93
2022-12-18T19:14:49.928Z,14.47
2022-12-18T19:17:16.735Z,13.17
2022-12-18T19:19:43.687Z,13.77
2022-12-18T19:22:10.950Z,14.27
2022-12-18T19:24:37.934Z,14.27
2022-12-18T19:27:05.102Z,12.83
2022-12-18T19:29:31.998Z,15.10
2022-12-18T19:31:58.992Z,14.10
2022-12-18T19:34:26.024Z,13.13
2022-12-18T19:36:57.972Z,14.00
2022-12-18T19:39:26.723Z,14.10
2022-12-18T19:41:53.652Z,14.67
2022-12-18T19:44:21.055Z,13.93
2022-12-18T19:46:51.390Z,14.23
2022-12-18T19:49:18.412Z,16.37
2022-12-18T19:51:45.992Z,14.13
2022-12-18T19:54:17.418Z,14.67
2022-12-18T19:56:45.853Z,13.67
2022-12-18T19:59:13.364Z,16.37
2022-12-18T20:01:41.033Z,14.17
2022-12-18T20:04:08.078Z,14.83
2022-12-18T20:06:47.996Z,14.70
2022-12-18T20:09:15.450Z,13.57
2022-12-18T20:11:42.860Z,14.27
2022-12-18T20:14:16.860Z,13.77
2022-12-18T20:16:49.593Z,15.07
2022-12-18T20:19:17.056Z,14.00
2022-12-18T20:21:44.335Z,15.40
2022-12-18T20:24:11.174Z,15.57
2022-12-18T20:26:38.250Z,15.43
2022-12-18T20:29:05.088Z,15.43
2022-12-18T20:31:34.509Z,14.87
2022-12-18T20:34:03.545Z,14.13
2022-12-18T20:36:31.921Z,15.33
2022-12-18T20:39:02.683Z,14.67
2022-12-18T20:41:37.212Z,15.60
2022-12-18T20:44:23.246Z,14.40
2022-12-18T20:46:57.490Z,15.03
2022-12-18T20:49:26.401Z,14.63
2022-12-18T20:51:59.003Z,15.67
2022-12-18T20:54:27.210Z,14.50
2022-12-18T20:56:55.070Z,15.87
2022-12-18T20:59:23.050Z,15.47
2022-12-18T21:01:55.508Z,15.17
2022-12-18T21:04:23.636Z,14.73
2022-12-18T21:06:55.284Z,14.00
2022-12-18T21:09:27.909Z,15.17
2022-12-18T21:12:23.831Z,14.67
2022-12-18T21:14:50.631Z,14.87
2022-12-18T21:17:17.436Z,15.93
2022-12-18T21:19:44.127Z,15.50
2022-12-18T21:22:14.595Z,16.53
2022-12-18T21:24:41.349Z,15.43
2022-12-18T21:27:08.135Z,15.87
2022-12-18T21:29:35.931Z,15.43
2022-12-18T21:32:04.340Z,16.03
2022-12-18T21:34:33.069Z,15.53
2022-12-18T21:37:01.592Z,15.53
2022-12-18T21:39:32.913Z,16.17
2022-12-18T21:42:19.074Z,15.63
2022-12-18T21:44:48.976Z,15.60
2022-12-18T21:47:21.677Z,15.60
2022-12-18T21:49:53.872Z,16.50
2022-12-18T21:52:31.545Z,15.43
2022-12-18T21:55:19.522Z,16.17
2022-12-18T21:57:46.306Z,16.27
2022-12-18T22:00:18.510Z,16.40
2022-12-18T22:02:47.029Z,15.77
2022-12-18T22:05:13.957Z,15.67
2022-12-18T22:07:40.803Z,16.27
2022-12-18T22:10:11.510Z,15.90
2022-12-18T22:12:44.517Z,15.67
2022-12-18T22:15:21.330Z,15.00
2022-12-18T22:17:54.145Z,16.53
2022-12-18T22:20:28.437Z,16.00
2022-12-18T22:22:56.967Z,15.23
2022-12-18T22:25:23.727Z,17.60
2022-12-18T22:28:08.781Z,14.90
2022-12-18T22:30:36.161Z,15.97
2022-12-18T22:33:03.581Z,16.97
2022-12-18T22:35:30.550Z,16.27
2022-12-18T22:37:59.836Z,16.67
2022-12-18T22:40:27.759Z,16.30
2022-12-18T22:42:55.934Z,16.03
2022-12-18T22:45:24.095Z,16.30
2022-12-18T22:47:51.092Z,15.70
2022-12-18T22:50:20.012Z,15.57
2022-12-18T22:52:46.784Z,16.83
2022-12-18T22:55:13.529Z,15.60
2022-12-18T22:57:40.276Z,17.63
2022-12-18T23:00:11.635Z,16.50
2022-12-18T23:02:38.639Z,15.37
2022-12-18T23:05:08.685Z,16.33
2022-12-18T23:07:35.506Z,16.67
2022-12-18T23:10:02.216Z,16.37
2022-12-18T23:12:29.011Z,16.30
2022-12-18T23:14:56.052Z,16.93
2022-12-18T23:17:25.493Z,17.30
2022-12-18T23:19:52.227Z,16.60
2022-12-18T23:22:18.946Z,15.33
2022-12-18T23:24:47.169Z,16.53
2022-12-18T23:27:13.968Z,17.90
2022-12-18T23:29:40.792Z,16.20
2022-12-18T23:32:07.999Z,16.60
2022-12-18T23:34:34.753Z,16.93
2022-12-18T23:37:03.511Z,16.30
2022-12-18T23:39:30.518Z,16.10
2022-12-18T23:41:58.706Z,16.00
2022-12-18T23:44:25.851Z,16.03
2022-12-18T23:46:52.718Z,16.43
2022-12-18T23:49:19.507Z,16.80
2022-12-18T23:51:46.262Z,16.17
2022-12-18T23:54:12.974Z,16.23
2022-12-18T23:56:39.773Z,16.37
2022-12-18T23:59:06.694Z,16.73
